Ana Sayfa
METAR-TAF:

METAR-TAF

Havaalanları :

Naval Outlying Landing Field Imperial Beach (Ream Field)

Imperial Beach, Kaliforniya, Amerika Birleşik Devletleri

Enlem: 32-33-47N, Boylam: 117-06-36W, yükseklik: 7 m

Güncel hava durumu gözlemi

Rapor saat 00:56 UTC de 52 dakika önce yapıldı.
Rüzgar batı/güneybatıdan 18 kt ve 30 kt'a kadar ani rüzgarlar
Sıcaklık 12°C
Nem 50%
Basınç 1010 hPa
Görüş mesafesi: 16.1 km
4300 ft yükseklikte parçalı bulutlu
5000 ft yükseklikte parçalı çok bulutlu
11000 ft yükseklikte parçalı çok bulutlu
20000 ft yükseklikte parçalı çok bulutlu

METAR: KNRS 260056Z 25018G30KT 10SM SCT043 BKN050 BKN110 BKN200 12/02 A2982 RMK AO2 SLP097 PK WND 27030/0023 T01220022 $

Saat: 17:48 (01:48 UTC)


TAF: eksik

4.000'den fazla havaalanı için hava durumu gözlemleri ve tahminleri (METAR ve TAF raporları).

Kullanılabilir istasyonlar harita üzerinde sarı ve kırmızı noktalarla gösterilir.

İstasyonun adını görmek için fareyi noktanın üzerinde gezdirin.

Sonrasında hava gözlem ve tahminlerini görmek için tıklayın.

Haritayı değiştirmek için: yaklaştırmak için siyah artı işaretli yeşil düğmeye ve uzaklaştırmak için de eksi işaretli düğmeye hızla tıklayın; bitişik haritalar için yeşil okları kullanın.


METAR-TAF: